createdAt,value
2017-12-15T00:00:23.184Z,2.40
2017-12-15T00:02:32.308Z,2.40
2017-12-15T00:04:33.359Z,2.40
2017-12-15T00:06:34.368Z,2.40
2017-12-15T00:08:35.364Z,2.40
2017-12-15T00:10:36.385Z,2.40
2017-12-15T00:12:37.360Z,2.40
2017-12-15T00:14:38.401Z,2.40
2017-12-15T00:16:41.944Z,2.50
2017-12-15T00:18:43.037Z,2.50
2017-12-15T00:20:44.089Z,2.50
2017-12-15T00:22:45.066Z,2.50
2017-12-15T00:24:46.071Z,2.50
2017-12-15T00:26:47.040Z,2.50
2017-12-15T00:28:48.008Z,2.50
2017-12-15T00:30:49.001Z,2.50
2017-12-15T00:32:52.743Z,2.50
2017-12-15T00:34:53.938Z,2.40
2017-12-15T00:36:58.040Z,2.50
2017-12-15T00:38:59.916Z,2.50
2017-12-15T00:41:03.189Z,2.50
2017-12-15T00:43:04.314Z,2.50
2017-12-15T00:45:05.363Z,2.40
2017-12-15T00:47:08.016Z,2.50
2017-12-15T00:49:13.431Z,2.40
2017-12-15T00:51:14.538Z,2.40
2017-12-15T00:53:16.659Z,2.40
2017-12-15T00:55:17.794Z,2.40
2017-12-15T00:57:18.915Z,2.40
2017-12-15T00:59:19.924Z,2.50
2017-12-15T01:01:20.892Z,2.50
2017-12-15T01:03:21.888Z,2.50
2017-12-15T01:05:22.925Z,2.50
2017-12-15T01:07:23.922Z,2.50
2017-12-15T01:09:24.919Z,2.50
2017-12-15T01:11:25.930Z,2.60
2017-12-15T01:13:27.005Z,2.50
2017-12-15T01:15:28.163Z,2.50
2017-12-15T01:17:29.305Z,2.50
2017-12-15T01:19:30.298Z,2.50
2017-12-15T01:21:31.481Z,2.50
2017-12-15T01:23:32.982Z,2.50
2017-12-15T01:25:34.092Z,2.50
2017-12-15T01:27:35.913Z,2.50
2017-12-15T01:29:36.934Z,2.50
2017-12-15T01:31:37.988Z,2.50
2017-12-15T01:33:39.019Z,2.50
2017-12-15T01:35:40.051Z,2.50
2017-12-15T01:37:41.025Z,2.50
2017-12-15T01:39:42.042Z,2.50
2017-12-15T01:41:43.014Z,2.40
2017-12-15T01:43:43.992Z,2.40
2017-12-15T01:45:45.340Z,2.40
2017-12-15T01:47:46.391Z,2.40
2017-12-15T01:49:47.388Z,2.40
2017-12-15T01:51:48.419Z,2.40
2017-12-15T01:53:49.644Z,2.40
2017-12-15T01:55:50.629Z,2.40
2017-12-15T01:57:51.644Z,2.40
2017-12-15T01:59:52.682Z,2.40
2017-12-15T02:01:57.509Z,2.40
2017-12-15T02:03:58.610Z,2.30
2017-12-15T02:05:59.594Z,2.30
2017-12-15T02:08:00.592Z,2.30
2017-12-15T02:10:01.619Z,2.30
2017-12-15T02:12:02.642Z,2.30
2017-12-15T02:14:03.651Z,2.30
2017-12-15T02:16:05.147Z,2.30
2017-12-15T02:18:06.166Z,2.30
2017-12-15T02:20:07.893Z,2.20
2017-12-15T02:22:08.917Z,2.20
2017-12-15T02:24:09.934Z,2.20
2017-12-15T02:26:11.000Z,2.20
2017-12-15T02:28:12.055Z,2.10
2017-12-15T02:30:13.121Z,2.10
2017-12-15T02:32:14.112Z,2.10
2017-12-15T02:34:15.073Z,2.10
2017-12-15T02:38:34.779Z,2.00
2017-12-15T02:40:35.783Z,2.00
2017-12-15T02:42:36.765Z,2.00
2017-12-15T02:44:37.793Z,1.90
2017-12-15T02:46:38.838Z,1.90
2017-12-15T02:48:39.834Z,1.90
2017-12-15T02:50:53.408Z,1.90
2017-12-15T02:52:54.448Z,2.00
2017-12-15T02:54:55.489Z,2.00
2017-12-15T02:56:56.622Z,2.00
2017-12-15T02:58:57.633Z,2.00
2017-12-15T03:00:58.645Z,2.00
2017-12-15T03:02:59.656Z,2.00
2017-12-15T03:05:24.991Z,2.00
2017-12-15T03:07:26.813Z,2.00
2017-12-15T03:09:27.924Z,2.00
2017-12-15T03:11:32.495Z,2.00
2017-12-15T03:13:35.430Z,2.00
2017-12-15T03:15:36.773Z,2.00
2017-12-15T03:17:37.813Z,2.00
2017-12-15T03:19:38.833Z,2.00
2017-12-15T03:21:39.890Z,2.00
2017-12-15T03:23:42.320Z,2.00
2017-12-15T03:25:43.378Z,2.00
2017-12-15T03:27:44.414Z,2.00
2017-12-15T03:29:46.970Z,2.00
2017-12-15T03:31:48.068Z,2.00
2017-12-15T03:33:49.053Z,2.00
2017-12-15T03:35:50.068Z,2.00
2017-12-15T03:37:51.615Z,2.00
2017-12-15T03:39:53.369Z,2.00
2017-12-15T03:41:54.471Z,2.00
2017-12-15T03:43:55.496Z,2.00
2017-12-15T03:45:56.609Z,2.00
2017-12-15T03:47:57.598Z,2.00
2017-12-15T03:49:58.631Z,2.00
2017-12-15T03:51:59.656Z,2.00
2017-12-15T03:54:01.042Z,2.00
2017-12-15T03:56:02.084Z,2.00
2017-12-15T03:58:03.089Z,2.00
2017-12-15T04:00:04.077Z,2.00
2017-12-15T04:02:05.049Z,1.90
2017-12-15T04:04:06.828Z,1.90
2017-12-15T04:06:07.870Z,1.90
2017-12-15T04:08:08.908Z,1.90
2017-12-15T04:10:10.701Z,1.90
2017-12-15T04:12:12.732Z,1.90
2017-12-15T04:14:13.754Z,1.90
2017-12-15T04:16:14.758Z,1.90
2017-12-15T04:18:18.856Z,1.90
2017-12-15T04:20:19.991Z,1.90
2017-12-15T04:22:21.772Z,1.90
2017-12-15T04:24:22.911Z,1.90
2017-12-15T04:26:24.134Z,1.90
2017-12-15T04:28:25.190Z,1.80
2017-12-15T04:30:26.841Z,1.80
2017-12-15T04:32:27.872Z,1.90
2017-12-15T04:34:28.829Z,1.80
2017-12-15T04:36:29.843Z,1.80
2017-12-15T04:38:30.837Z,1.80
2017-12-15T04:44:49.663Z,1.90
2017-12-15T04:46:50.657Z,1.90
2017-12-15T04:48:51.741Z,1.90
2017-12-15T04:50:52.774Z,1.90
2017-12-15T04:52:53.797Z,1.90
2017-12-15T04:54:54.827Z,1.90
2017-12-15T04:56:55.912Z,1.90
2017-12-15T04:58:56.948Z,1.90
2017-12-15T05:00:57.946Z,1.90
2017-12-15T05:02:59.001Z,1.90
2017-12-15T05:05:01.946Z,1.90
2017-12-15T05:07:04.336Z,1.90
2017-12-15T05:09:05.391Z,1.90
2017-12-15T05:11:08.888Z,1.90
2017-12-15T05:13:09.931Z,2.00
2017-12-15T05:15:11.162Z,1.90
2017-12-15T05:17:12.824Z,2.00
2017-12-15T05:19:14.702Z,2.00
2017-12-15T05:21:15.696Z,2.00
2017-12-15T05:23:17.422Z,2.00
2017-12-15T05:25:18.631Z,2.00
2017-12-15T05:27:19.585Z,2.00
2017-12-15T05:29:20.664Z,2.00
2017-12-15T05:31:21.653Z,2.00
2017-12-15T05:33:22.657Z,2.00
2017-12-15T05:35:23.657Z,2.00
2017-12-15T05:37:24.717Z,2.00
2017-12-15T05:39:25.756Z,2.00
2017-12-15T05:41:26.728Z,2.00
2017-12-15T05:43:28.382Z,2.00
2017-12-15T05:45:29.618Z,2.10
2017-12-15T05:47:30.668Z,2.10
2017-12-15T05:49:31.626Z,2.10
2017-12-15T05:51:32.697Z,2.10
2017-12-15T05:53:40.510Z,2.10
2017-12-15T05:55:41.629Z,2.10
2017-12-15T05:57:42.596Z,2.00
2017-12-15T05:59:44.155Z,2.00
2017-12-15T06:01:45.123Z,1.90
2017-12-15T06:03:46.173Z,1.90
2017-12-15T06:05:47.322Z,1.90
2017-12-15T06:07:49.136Z,1.80
2017-12-15T06:09:50.177Z,1.80
2017-12-15T06:11:51.148Z,1.70
2017-12-15T06:13:52.156Z,1.70
2017-12-15T06:15:53.430Z,1.70
2017-12-15T06:17:54.389Z,1.60
2017-12-15T06:19:55.393Z,1.60
2017-12-15T06:21:57.116Z,1.50
2017-12-15T06:23:58.094Z,1.50
2017-12-15T06:25:59.826Z,1.40
2017-12-15T06:28:00.808Z,1.40
2017-12-15T06:30:01.821Z,1.40
2017-12-15T06:32:03.157Z,1.40
2017-12-15T06:34:04.170Z,1.40
2017-12-15T06:36:05.351Z,1.40
2017-12-15T06:38:06.425Z,1.40
2017-12-15T06:40:07.445Z,1.40
2017-12-15T06:42:08.505Z,1.40
2017-12-15T06:44:09.541Z,1.40
2017-12-15T06:46:10.568Z,1.40
2017-12-15T06:48:11.594Z,1.40
2017-12-15T06:50:13.349Z,1.50
2017-12-15T06:52:15.085Z,1.50
2017-12-15T06:54:16.040Z,1.40
2017-12-15T06:56:17.060Z,1.40
2017-12-15T06:58:18.043Z,1.50
2017-12-15T07:00:20.057Z,1.50
2017-12-15T07:02:21.001Z,1.50
2017-12-15T07:04:21.989Z,1.50
2017-12-15T07:06:22.976Z,1.50
2017-12-15T07:08:23.962Z,1.50
2017-12-15T07:10:24.924Z,1.60
2017-12-15T07:12:25.896Z,1.60
2017-12-15T07:14:27.660Z,1.60
2017-12-15T07:16:29.377Z,1.60
2017-12-15T07:18:30.332Z,1.60
2017-12-15T07:20:31.652Z,1.60
2017-12-15T07:22:32.664Z,1.60
2017-12-15T07:24:34.411Z,1.70
2017-12-15T07:26:35.373Z,1.70
2017-12-15T07:28:36.345Z,1.70
2017-12-15T07:30:37.432Z,1.70
2017-12-15T07:32:38.461Z,1.70
2017-12-15T07:34:39.509Z,1.80
2017-12-15T07:36:40.480Z,1.80
2017-12-15T07:38:41.441Z,1.80
2017-12-15T07:40:42.444Z,1.90
2017-12-15T07:42:43.431Z,1.80
2017-12-15T07:44:44.406Z,1.90
2017-12-15T07:46:45.360Z,1.90
2017-12-15T07:48:47.057Z,2.00
2017-12-15T07:50:48.088Z,1.90
2017-12-15T07:52:49.049Z,2.00
2017-12-15T07:54:50.032Z,2.00
2017-12-15T07:56:51.038Z,2.00
2017-12-15T07:58:52.001Z,2.10
2017-12-15T08:00:53.176Z,2.10
2017-12-15T08:02:54.133Z,2.10
2017-12-15T08:04:55.097Z,2.20
2017-12-15T08:06:56.791Z,2.20
2017-12-15T08:08:57.767Z,2.20
2017-12-15T08:10:58.749Z,2.20
2017-12-15T08:13:00.454Z,2.30
2017-12-15T08:15:01.430Z,2.30
2017-12-15T08:17:02.412Z,2.30
2017-12-15T08:19:04.117Z,2.30
2017-12-15T08:21:05.108Z,2.30
2017-12-15T08:23:06.807Z,2.40
2017-12-15T08:25:07.788Z,2.40
2017-12-15T08:27:08.755Z,2.40
2017-12-15T08:29:09.713Z,2.40
2017-12-15T08:31:11.401Z,2.40
2017-12-15T08:33:12.341Z,2.40
2017-12-15T08:35:13.297Z,2.50
2017-12-15T08:37:14.273Z,2.50
2017-12-15T08:39:15.244Z,2.50
2017-12-15T08:41:16.212Z,2.50
2017-12-15T08:43:17.934Z,2.50
2017-12-15T08:45:18.913Z,2.50
2017-12-15T08:47:20.802Z,2.50
2017-12-15T08:49:21.753Z,2.50
2017-12-15T08:51:22.726Z,2.60
2017-12-15T08:53:23.708Z,2.60
2017-12-15T08:55:24.652Z,2.60
2017-12-15T08:57:25.620Z,2.60
2017-12-15T08:59:26.678Z,2.60
2017-12-15T09:01:27.778Z,2.60
2017-12-15T09:03:28.769Z,2.60
2017-12-15T09:05:29.745Z,2.60
2017-12-15T09:07:30.743Z,2.70
2017-12-15T09:09:32.458Z,2.70
2017-12-15T09:11:33.461Z,2.60
2017-12-15T09:13:35.209Z,2.70
2017-12-15T09:15:36.962Z,2.60
2017-12-15T09:17:37.937Z,2.60
2017-12-15T09:19:39.652Z,2.70
2017-12-15T09:21:40.608Z,2.70
2017-12-15T09:23:41.577Z,2.70
2017-12-15T09:25:43.300Z,2.70
2017-12-15T09:27:44.285Z,2.70
2017-12-15T09:29:45.994Z,2.70
2017-12-15T09:31:47.029Z,2.70
2017-12-15T09:33:47.994Z,2.70
2017-12-15T09:35:48.970Z,2.70
2017-12-15T09:37:49.933Z,2.80
2017-12-15T09:39:50.892Z,2.80
2017-12-15T09:41:52.604Z,2.80
2017-12-15T09:43:55.502Z,2.70
2017-12-15T09:45:56.466Z,2.80
2017-12-15T09:47:57.452Z,2.80
2017-12-15T09:49:58.417Z,2.80
2017-12-15T09:51:59.440Z,2.80
2017-12-15T09:54:00.423Z,2.80
2017-12-15T09:56:01.401Z,2.90
2017-12-15T09:58:02.393Z,2.90
2017-12-15T10:00:03.370Z,2.90
2017-12-15T10:02:04.330Z,3.00
2017-12-15T10:04:05.289Z,3.00
2017-12-15T10:06:06.265Z,3.00
2017-12-15T10:08:07.240Z,3.10
2017-12-15T10:10:09.017Z,3.10
2017-12-15T10:12:10.088Z,3.10
2017-12-15T10:14:11.103Z,3.10
2017-12-15T10:16:12.065Z,3.10
2017-12-15T10:18:13.046Z,3.20
2017-12-15T10:20:14.024Z,3.20
2017-12-15T10:22:14.982Z,3.20
2017-12-15T10:24:15.996Z,3.20
2017-12-15T10:26:16.932Z,3.20
2017-12-15T10:28:18.652Z,3.20
2017-12-15T10:30:19.974Z,3.20
2017-12-15T10:32:21.011Z,3.30
2017-12-15T10:34:22.729Z,3.30
2017-12-15T10:36:23.709Z,3.30
2017-12-15T10:38:25.419Z,3.50
2017-12-15T10:40:26.402Z,3.50
2017-12-15T10:42:27.353Z,3.50
2017-12-15T10:44:28.565Z,3.60
2017-12-15T10:46:29.552Z,3.70
2017-12-15T10:48:31.275Z,3.70
2017-12-15T10:50:32.252Z,3.70
2017-12-15T10:52:33.221Z,3.70
2017-12-15T10:54:34.180Z,3.80
2017-12-15T10:56:35.893Z,4.10
2017-12-15T10:58:36.856Z,4.10
2017-12-15T11:00:37.808Z,4.30
2017-12-15T11:02:38.805Z,5.30
2017-12-15T11:04:40.571Z,6.00
2017-12-15T11:06:41.569Z,7.00
2017-12-15T11:08:42.554Z,8.00
2017-12-15T11:10:43.526Z,8.50
2017-12-15T11:12:44.575Z,8.90
2017-12-15T11:14:45.576Z,8.40
2017-12-15T11:16:46.583Z,8.60
2017-12-15T11:18:47.563Z,8.90
2017-12-15T11:20:48.574Z,8.60
2017-12-15T11:22:49.609Z,9.10
2017-12-15T11:24:50.601Z,8.90
2017-12-15T11:26:52.325Z,8.00
2017-12-15T11:28:53.622Z,8.00
2017-12-15T11:30:54.655Z,7.90
2017-12-15T11:32:56.007Z,7.30
2017-12-15T11:34:57.980Z,6.60
2017-12-15T11:36:59.144Z,6.60
2017-12-15T11:39:04.511Z,6.30
2017-12-15T11:41:15.964Z,6.00
2017-12-15T11:43:20.465Z,5.80
2017-12-15T11:45:22.714Z,5.70
2017-12-15T11:47:30.993Z,5.60
2017-12-15T11:51:45.816Z,5.40
2017-12-15T11:53:46.937Z,6.30
2017-12-15T11:55:48.337Z,5.80
2017-12-15T11:57:49.904Z,5.70
2017-12-15T11:59:50.925Z,5.70
2017-12-15T12:01:53.044Z,5.80
2017-12-15T12:03:54.122Z,5.80
2017-12-15T12:05:55.154Z,6.10
2017-12-15T12:07:56.245Z,6.30
2017-12-15T12:09:57.978Z,7.90
2017-12-15T12:11:59.012Z,7.90
2017-12-15T12:14:00.005Z,8.60
2017-12-15T12:16:01.977Z,8.20
2017-12-15T12:18:03.020Z,8.20
2017-12-15T12:20:04.057Z,7.90
2017-12-15T12:22:05.048Z,7.60
2017-12-15T12:24:06.022Z,7.40
2017-12-15T12:26:07.234Z,6.90
2017-12-15T12:28:08.277Z,6.70
2017-12-15T12:30:09.297Z,6.60
2017-12-15T12:32:10.292Z,6.30
2017-12-15T12:34:11.332Z,6.00
2017-12-15T12:36:12.348Z,5.80
2017-12-15T12:38:13.392Z,5.60
2017-12-15T12:40:15.272Z,5.40
2017-12-15T12:42:16.249Z,5.40
2017-12-15T12:44:17.239Z,5.40
2017-12-15T12:46:18.966Z,5.20
2017-12-15T12:48:19.965Z,5.20
2017-12-15T12:50:21.732Z,5.10
2017-12-15T12:52:22.736Z,5.10
2017-12-15T12:54:23.728Z,5.00
2017-12-15T12:56:24.709Z,4.90
2017-12-15T12:58:25.681Z,4.90
2017-12-15T13:00:26.848Z,4.80
2017-12-15T13:02:28.699Z,4.90
2017-12-15T13:04:29.836Z,4.90
2017-12-15T13:06:30.824Z,6.00
2017-12-15T13:08:32.544Z,6.50
2017-12-15T13:10:33.537Z,6.50
2017-12-15T13:12:35.268Z,6.20
2017-12-15T13:14:36.294Z,6.20
2017-12-15T13:16:37.539Z,6.10
2017-12-15T13:18:38.549Z,5.90
2017-12-15T13:20:39.736Z,5.70
2017-12-15T13:22:42.437Z,5.60
2017-12-15T13:24:44.134Z,5.60
2017-12-15T13:26:46.040Z,5.50
2017-12-15T13:28:47.021Z,5.50
2017-12-15T13:30:49.627Z,5.90
2017-12-15T13:32:50.622Z,5.90
2017-12-15T13:34:59.050Z,5.90
2017-12-15T13:37:00.083Z,5.80
2017-12-15T13:39:01.086Z,5.60
2017-12-15T13:41:02.068Z,5.50
2017-12-15T13:43:04.261Z,5.40
2017-12-15T13:45:05.313Z,5.30
2017-12-15T13:47:06.292Z,5.30
2017-12-15T13:49:07.276Z,5.20
2017-12-15T13:51:09.429Z,5.10
2017-12-15T13:53:10.509Z,5.10
2017-12-15T13:55:11.571Z,5.20
2017-12-15T13:57:12.694Z,5.10
2017-12-15T13:59:13.711Z,5.10
2017-12-15T14:01:15.397Z,4.90
2017-12-15T14:03:16.466Z,4.80
2017-12-15T14:05:17.448Z,4.70
2017-12-15T14:07:19.356Z,4.60
2017-12-15T14:09:20.721Z,4.50
2017-12-15T14:11:21.748Z,4.30
2017-12-15T14:13:23.465Z,4.30
2017-12-15T14:15:24.605Z,4.30
2017-12-15T14:17:25.868Z,4.30
2017-12-15T14:19:26.845Z,4.20
2017-12-15T14:21:27.788Z,4.20
2017-12-15T14:23:28.770Z,4.10
2017-12-15T14:25:30.496Z,4.10
2017-12-15T14:27:31.486Z,4.10
2017-12-15T14:29:32.457Z,4.10
2017-12-15T14:31:33.437Z,4.10
2017-12-15T14:33:34.441Z,4.20
2017-12-15T14:35:35.448Z,4.20
2017-12-15T14:37:36.441Z,4.20
2017-12-15T14:39:37.433Z,4.20
2017-12-15T14:41:38.500Z,4.20
2017-12-15T14:43:40.992Z,4.20
2017-12-15T14:45:42.054Z,4.20
2017-12-15T14:47:43.088Z,4.20
2017-12-15T14:49:44.110Z,4.20
2017-12-15T14:51:45.074Z,4.10
2017-12-15T14:53:46.081Z,4.10
2017-12-15T14:55:48.746Z,4.00
2017-12-15T14:57:49.737Z,3.80
2017-12-15T14:59:53.524Z,3.80
2017-12-15T15:01:54.713Z,3.80
2017-12-15T15:03:56.415Z,3.80
2017-12-15T15:05:57.399Z,3.70
2017-12-15T15:07:58.389Z,3.80
2017-12-15T15:09:59.423Z,3.80
2017-12-15T15:12:00.989Z,3.80
2017-12-15T15:14:02.164Z,3.80
2017-12-15T15:18:59.061Z,3.80
2017-12-15T15:21:00.048Z,3.80
2017-12-15T15:23:01.016Z,3.80
2017-12-15T15:25:04.683Z,3.80
2017-12-15T15:27:05.660Z,3.80
2017-12-15T15:29:06.638Z,3.80
2017-12-15T15:31:09.782Z,3.70
2017-12-15T15:33:10.913Z,3.70
2017-12-15T15:35:12.843Z,3.80
2017-12-15T15:37:13.890Z,3.70
2017-12-15T15:39:14.871Z,3.80
2017-12-15T15:41:15.880Z,3.80
2017-12-15T15:43:16.869Z,3.80
2017-12-15T15:45:17.851Z,3.70
2017-12-15T15:47:19.540Z,3.70
2017-12-15T15:49:20.496Z,3.70
2017-12-15T15:51:22.260Z,3.70
2017-12-15T15:53:23.237Z,3.70
2017-12-15T15:55:24.187Z,3.70
2017-12-15T15:57:25.378Z,3.70
2017-12-15T15:59:26.364Z,3.70
2017-12-15T16:01:27.344Z,3.70
2017-12-15T16:03:29.510Z,3.60
2017-12-15T16:05:30.676Z,3.70
2017-12-15T16:07:32.456Z,3.70
2017-12-15T16:09:35.373Z,3.60
2017-12-15T16:11:36.364Z,3.60
2017-12-15T16:13:37.349Z,3.70
2017-12-15T16:15:40.404Z,3.60
2017-12-15T16:17:41.681Z,3.60
2017-12-15T16:19:42.861Z,3.60
2017-12-15T16:21:43.852Z,3.60
2017-12-15T16:23:44.870Z,3.60
2017-12-15T16:25:45.867Z,3.60
2017-12-15T16:27:46.872Z,3.60
2017-12-15T16:29:47.872Z,3.60
2017-12-15T16:31:48.918Z,3.60
2017-12-15T16:33:50.880Z,3.50
2017-12-15T16:35:51.991Z,3.50
2017-12-15T16:38:01.853Z,3.50
2017-12-15T16:40:03.728Z,3.50
2017-12-15T16:42:06.928Z,3.50
2017-12-15T16:44:08.724Z,3.50
2017-12-15T16:46:09.975Z,3.50
2017-12-15T16:48:11.808Z,3.60
2017-12-15T16:50:13.332Z,3.50
2017-12-15T16:52:14.582Z,3.60
2017-12-15T16:54:15.574Z,3.60
2017-12-15T16:56:16.584Z,3.60
2017-12-15T16:58:17.671Z,3.60
2017-12-15T17:00:18.664Z,3.60
2017-12-15T17:02:19.908Z,3.60
2017-12-15T17:04:21.157Z,3.60
2017-12-15T17:06:22.213Z,3.60
2017-12-15T17:08:23.234Z,3.60
2017-12-15T17:10:34.482Z,3.50
2017-12-15T17:12:36.268Z,3.50
2017-12-15T17:14:37.300Z,3.50
2017-12-15T17:16:38.324Z,3.50
2017-12-15T17:18:40.503Z,3.50
2017-12-15T17:20:41.526Z,3.50
2017-12-15T17:22:43.284Z,3.50
2017-12-15T17:24:45.007Z,3.50
2017-12-15T17:26:45.993Z,3.50
2017-12-15T17:28:47.732Z,3.40
2017-12-15T17:30:49.071Z,3.40
2017-12-15T17:32:50.186Z,3.50
2017-12-15T17:34:51.168Z,3.40
2017-12-15T17:36:52.137Z,3.40
2017-12-15T17:38:53.172Z,3.40
2017-12-15T17:40:55.675Z,3.40
2017-12-15T17:43:03.586Z,3.40
2017-12-15T17:45:05.215Z,3.40
2017-12-15T17:47:07.440Z,3.30
2017-12-15T17:49:08.557Z,3.30
2017-12-15T17:51:09.613Z,3.30
2017-12-15T17:53:10.637Z,3.30
2017-12-15T17:55:11.772Z,3.30
2017-12-15T17:57:12.748Z,3.30
2017-12-15T17:59:13.761Z,3.20
2017-12-15T18:01:14.748Z,3.20
2017-12-15T18:03:15.741Z,3.20
2017-12-15T18:05:16.773Z,3.10
2017-12-15T18:07:18.802Z,3.10
2017-12-15T18:09:19.822Z,3.10
2017-12-15T18:11:24.093Z,3.10
2017-12-15T18:13:25.116Z,3.00
2017-12-15T18:15:26.157Z,3.00
2017-12-15T18:17:27.201Z,3.00
2017-12-15T18:19:28.265Z,3.00
2017-12-15T18:21:30.033Z,3.00
2017-12-15T18:23:31.020Z,3.00
2017-12-15T18:25:32.007Z,3.00
2017-12-15T18:27:33.790Z,3.00
2017-12-15T18:29:34.766Z,3.00
2017-12-15T18:31:35.760Z,3.00
2017-12-15T18:33:37.550Z,3.00
2017-12-15T18:35:38.568Z,3.00
2017-12-15T18:37:40.339Z,3.00
2017-12-15T18:39:41.337Z,3.00
2017-12-15T18:41:42.433Z,3.10
2017-12-15T18:43:43.422Z,3.00
2017-12-15T18:45:44.483Z,3.10
2017-12-15T18:47:45.478Z,3.10
2017-12-15T18:49:47.220Z,3.10
2017-12-15T18:51:48.253Z,3.10
2017-12-15T18:53:49.277Z,3.10
2017-12-15T18:55:50.313Z,3.10
2017-12-15T18:57:51.320Z,3.10
2017-12-15T18:59:52.304Z,3.10
2017-12-15T19:01:53.455Z,3.10
2017-12-15T19:03:54.459Z,3.10
2017-12-15T19:05:55.508Z,3.10
2017-12-15T19:07:56.524Z,3.10
2017-12-15T19:09:57.533Z,3.10
2017-12-15T19:11:59.326Z,3.10
2017-12-15T19:14:00.365Z,3.10
2017-12-15T19:16:01.466Z,3.10
2017-12-15T19:18:02.544Z,3.20
2017-12-15T19:20:04.300Z,3.10
2017-12-15T19:22:06.045Z,3.20
2017-12-15T19:24:07.309Z,3.10
2017-12-15T19:26:08.409Z,3.20
2017-12-15T19:28:09.464Z,3.10
2017-12-15T19:30:10.462Z,3.20
2017-12-15T19:32:12.206Z,3.20
2017-12-15T19:34:13.198Z,3.10
2017-12-15T19:36:14.202Z,3.20
2017-12-15T19:38:15.223Z,3.10
2017-12-15T19:40:16.260Z,3.10
2017-12-15T19:42:17.260Z,3.10
2017-12-15T19:44:19.012Z,3.00
2017-12-15T19:46:20.884Z,3.00
2017-12-15T19:48:22.725Z,2.90
2017-12-15T19:50:23.760Z,2.90
2017-12-15T19:52:24.798Z,2.90
2017-12-15T19:54:25.981Z,2.90
2017-12-15T19:56:27.007Z,2.80
2017-12-15T19:58:28.323Z,2.80
2017-12-15T20:00:29.353Z,2.90
2017-12-15T20:02:31.091Z,2.80
2017-12-15T20:04:32.132Z,2.80
2017-12-15T20:06:33.129Z,2.90
2017-12-15T20:08:34.140Z,2.90
2017-12-15T20:10:35.148Z,2.90
2017-12-15T20:12:36.236Z,2.80
2017-12-15T20:14:37.242Z,2.90
2017-12-15T20:16:38.243Z,2.90
2017-12-15T20:18:40.012Z,2.80
2017-12-15T20:20:41.864Z,2.80
2017-12-15T20:22:42.909Z,2.80
2017-12-15T20:24:43.945Z,2.80
2017-12-15T20:26:45.791Z,2.80
2017-12-15T20:28:46.940Z,2.70
2017-12-15T20:30:47.980Z,2.70
2017-12-15T20:32:48.984Z,2.70
2017-12-15T20:34:49.961Z,2.70
2017-12-15T20:36:51.069Z,2.70
2017-12-15T20:38:52.098Z,2.70
2017-12-15T20:40:53.139Z,2.60
2017-12-15T20:42:54.133Z,2.60
2017-12-15T20:44:56.011Z,2.60
2017-12-15T20:46:57.098Z,2.60
2017-12-15T20:48:58.120Z,2.60
2017-12-15T20:50:59.142Z,2.60
2017-12-15T20:53:00.171Z,2.60
2017-12-15T20:55:01.182Z,2.60
2017-12-15T20:57:02.212Z,2.50
2017-12-15T20:59:03.256Z,2.60
2017-12-15T21:01:04.306Z,2.50
2017-12-15T21:03:05.387Z,2.50
2017-12-15T21:05:06.411Z,2.50
2017-12-15T21:07:07.477Z,2.50
2017-12-15T21:09:08.568Z,2.50
2017-12-15T21:11:09.618Z,2.40
2017-12-15T21:13:10.632Z,2.40
2017-12-15T21:15:11.648Z,2.40
2017-12-15T21:17:12.653Z,2.40
2017-12-15T21:19:13.642Z,2.40
2017-12-15T21:21:14.639Z,2.40
2017-12-15T21:23:16.382Z,2.40
2017-12-15T21:25:17.397Z,2.40
2017-12-15T21:27:18.480Z,2.40
2017-12-15T21:29:19.575Z,2.40
2017-12-15T21:31:20.604Z,2.40
2017-12-15T21:33:21.570Z,2.40
2017-12-15T21:35:22.641Z,2.40
2017-12-15T21:37:23.661Z,2.40
2017-12-15T21:39:24.676Z,2.40
2017-12-15T21:41:26.478Z,2.50
2017-12-15T21:43:27.488Z,2.50
2017-12-15T21:45:28.525Z,2.50
2017-12-15T21:47:30.268Z,2.40
2017-12-15T21:49:31.294Z,2.40
2017-12-15T21:51:32.265Z,2.40
2017-12-15T21:53:33.228Z,2.40
2017-12-15T21:56:55.235Z,2.40
2017-12-15T21:58:56.278Z,2.40
2017-12-15T22:00:57.303Z,2.40
2017-12-15T22:02:58.324Z,2.30
2017-12-15T22:05:00.061Z,2.30
2017-12-15T22:07:01.098Z,2.30
2017-12-15T22:09:02.117Z,2.30
2017-12-15T22:11:03.117Z,2.30
2017-12-15T22:13:04.138Z,2.30
2017-12-15T22:15:05.139Z,2.30
2017-12-15T22:17:06.860Z,2.30
2017-12-15T22:19:07.857Z,2.20
2017-12-15T22:21:08.911Z,2.30
2017-12-15T22:23:09.925Z,2.20
2017-12-15T22:25:10.907Z,2.30
2017-12-15T22:27:11.905Z,2.20
2017-12-15T22:29:12.919Z,2.30
2017-12-15T22:31:13.981Z,2.20
2017-12-15T22:33:15.010Z,2.20
2017-12-15T22:35:16.026Z,2.20
2017-12-15T22:37:17.019Z,2.20
2017-12-15T22:39:18.056Z,2.20
2017-12-15T22:41:19.009Z,2.20
2017-12-15T22:43:20.083Z,2.20
2017-12-15T22:45:21.101Z,2.20
2017-12-15T22:47:22.107Z,2.20
2017-12-15T22:49:23.135Z,2.20
2017-12-15T22:51:24.220Z,2.10
2017-12-15T22:53:25.254Z,2.20
2017-12-15T22:55:26.978Z,2.10
2017-12-15T22:57:28.071Z,2.10
2017-12-15T22:59:29.306Z,2.10
2017-12-15T23:01:31.075Z,2.00
2017-12-15T23:03:32.888Z,2.00
2017-12-15T23:05:33.899Z,2.00
2017-12-15T23:07:35.547Z,2.00
2017-12-15T23:09:36.546Z,2.00
2017-12-15T23:11:37.521Z,2.00
2017-12-15T23:13:38.464Z,2.00
2017-12-15T23:15:39.435Z,1.90
2017-12-15T23:17:41.164Z,1.90
2017-12-15T23:19:42.146Z,1.90
2017-12-15T23:21:43.879Z,2.00
2017-12-15T23:23:44.903Z,1.90
2017-12-15T23:25:45.920Z,2.00
2017-12-15T23:27:46.902Z,2.00
2017-12-15T23:29:48.694Z,2.00
2017-12-15T23:31:49.680Z,2.00
2017-12-15T23:33:50.672Z,2.00
2017-12-15T23:35:51.713Z,2.00
2017-12-15T23:37:52.723Z,2.00
2017-12-15T23:39:53.773Z,2.00
2017-12-15T23:41:54.799Z,2.00
2017-12-15T23:43:56.536Z,2.10
2017-12-15T23:45:57.541Z,2.00
2017-12-15T23:47:58.577Z,2.10
2017-12-15T23:49:59.626Z,2.10
2017-12-15T23:52:00.821Z,2.10
2017-12-15T23:54:01.837Z,2.10
2017-12-15T23:56:15.087Z,2.10
2017-12-15T23:58:16.086Z,2.10
